Alton, Illinois
Current Conditions -  °F | °C
As of 8:07 AM on Friday 19 Dec 2014 (Local Time) from KALN Reporting Station
Haze Haze  
Wind Chill: -2°   Ceiling: 6000
Heat Index: -2°   Visibility: 4mi
Dew Point: -3°   Wind: 0mph
Humidity: 93%   Direction: NA
Pressure: 30.32"   Gusts: NA
Location:  38.89°N, 90.18°W
Report Text: KALN 191407Z 00000KT 4SM BR SCT009 BKN060 M02/M03 A3032
Loading
Personal Weather Stations






























Interactive Weather Map New forecast layout! Learn more

10-Day Weather Forecast

Advertisements
Track Severe Weather on mobile